Time;durP1;ratioP1;P1;durP2;ratioP2;P2;SDS_P1;SDS_P2;PMS_P1;PMS_P2;Temp;Humidity;BMP_temperature;BMP_pressure;BME280_temperature;BME280_humidity;BME280_pressure;Samples;Min_cycle;Max_cycle;Signal;HPM_P1;HPM_P2
2023/11/05 00:01:36;;;;;;;2.13;0.70;;;8.40;99.90;;;;;;4810755;29;20665;-82
2023/11/05 00:04:04;;;;;;;1.77;0.70;;;8.40;99.90;;;;;;4810808;29;20193;-83
2023/11/05 00:06:31;;;;;;;2.67;0.60;;;8.40;99.90;;;;;;4803482;29;20530;-83
2023/11/05 00:08:58;;;;;;;1.33;0.60;;;8.40;99.90;;;;;;4810867;29;20202;-81
2023/11/05 00:11:24;;;;;;;1.88;0.70;;;8.40;99.90;;;;;;4810642;29;20277;-83
2023/11/05 00:13:49;;;;;;;2.47;0.77;;;8.50;99.90;;;;;;4826822;29;20272;-84
2023/11/05 00:16:15;;;;;;;1.13;0.50;;;8.50;99.90;;;;;;4826848;29;20193;-83
2023/11/05 00:18:41;;;;;;;4.93;0.90;;;8.60;99.90;;;;;;4810796;29;20258;-83
2023/11/05 00:21:07;;;;;;;2.30;0.68;;;8.60;99.90;;;;;;4810527;29;20603;-83
2023/11/05 00:23:33;;;;;;;3.80;0.68;;;8.60;99.90;;;;;;4826768;29;20181;-84
2023/11/05 00:25:59;;;;;;;1.92;0.57;;;8.60;99.90;;;;;;4810521;29;20273;-83
2023/11/05 00:28:25;;;;;;;1.10;0.50;;;8.60;99.90;;;;;;4826489;29;20194;-83
2023/11/05 00:30:51;;;;;;;2.63;0.60;;;8.60;99.90;;;;;;4826806;29;20594;-84
2023/11/05 00:33:17;;;;;;;4.38;0.90;;;8.60;99.90;;;;;;4826697;29;20210;-85
2023/11/05 00:35:44;;;;;;;0.57;0.40;;;8.60;99.90;;;;;;4826971;29;20225;-83
2023/11/05 00:38:11;;;;;;;1.17;0.70;;;8.60;99.90;;;;;;4771256;29;1183613;-82
2023/11/05 00:40:36;;;;;;;2.92;0.63;;;8.60;99.90;;;;;;4827633;29;20252;-82
2023/11/05 00:43:04;;;;;;;1.00;0.50;;;8.60;99.90;;;;;;4827394;29;20186;-82
2023/11/05 00:45:30;;;;;;;1.30;0.70;;;8.60;99.90;;;;;;4811352;29;20225;-84
2023/11/05 00:47:56;;;;;;;1.45;0.68;;;8.60;99.90;;;;;;4827665;29;20224;-84
2023/11/05 00:50:22;;;;;;;1.48;0.55;;;8.60;99.90;;;;;;4827456;29;20521;-83
2023/11/05 00:52:48;;;;;;;1.30;0.50;;;8.70;99.90;;;;;;4811291;29;20205;-82
2023/11/05 00:55:14;;;;;;;2.67;0.73;;;8.70;99.90;;;;;;4827364;29;20250;-84
2023/11/05 00:57:41;;;;;;;0.60;0.45;;;8.60;99.90;;;;;;4811324;29;20208;-83
2023/11/05 01:00:14;;;;;;;1.20;0.55;;;8.60;99.90;;;;;;4810693;29;21078;-84
2023/11/05 01:02:40;;;;;;;2.15;0.50;;;8.70;99.90;;;;;;4811198;29;20632;-85
2023/11/05 01:05:06;;;;;;;1.00;0.52;;;8.70;99.90;;;;;;4827472;29;20276;-84
2023/11/05 01:07:32;;;;;;;0.57;0.45;;;8.70;99.90;;;;;;4818035;29;20243;-83
2023/11/05 01:09:58;;;;;;;0.70;0.50;;;8.60;99.90;;;;;;4810877;29;20587;-84
2023/11/05 01:12:24;;;;;;;1.05;0.60;;;8.60;99.90;;;;;;4809719;29;20225;-85
2023/11/05 01:14:49;;;;;;;1.85;0.60;;;8.60;99.90;;;;;;4826858;29;20182;-84
2023/11/05 01:17:18;;;;;;;0.82;0.60;;;8.60;99.90;;;;;;4827079;29;20199;-84
2023/11/05 01:19:43;;;;;;;2.08;0.60;;;8.50;99.90;;;;;;4811023;29;20201;-85
2023/11/05 01:22:09;;;;;;;0.65;0.50;;;8.50;99.90;;;;;;4810679;29;20653;-84
2023/11/05 01:24:35;;;;;;;1.48;0.85;;;8.50;99.90;;;;;;4810728;29;20247;-85
2023/11/05 01:27:02;;;;;;;1.70;0.50;;;8.50;99.90;;;;;;4826972;29;20190;-83
2023/11/05 01:29:28;;;;;;;1.88;0.45;;;8.40;99.90;;;;;;4810586;29;20542;-85
2023/11/05 01:31:55;;;;;;;3.65;0.60;;;8.50;99.90;;;;;;4811012;29;20224;-84
2023/11/05 01:34:21;;;;;;;2.85;0.60;;;8.40;99.90;;;;;;4827089;29;20193;-86
2023/11/05 01:36:47;;;;;;;0.98;0.47;;;8.40;99.90;;;;;;4815959;29;20260;-83
2023/11/05 01:39:13;;;;;;;2.42;0.57;;;8.40;99.90;;;;;;4812758;29;20662;-84
2023/11/05 01:41:39;;;;;;;0.65;0.30;;;8.30;99.90;;;;;;4810741;29;20222;-83
2023/11/05 01:44:05;;;;;;;0.85;0.50;;;8.30;99.90;;;;;;4810220;29;20261;-84
2023/11/05 01:46:32;;;;;;;1.02;0.60;;;8.20;99.90;;;;;;4826965;29;20337;-84
2023/11/05 01:48:58;;;;;;;4.03;0.40;;;8.20;99.90;;;;;;4810218;29;20197;-84
2023/11/05 01:51:25;;;;;;;1.13;0.60;;;8.20;99.90;;;;;;4826760;29;21200;-83
2023/11/05 01:53:53;;;;;;;0.88;0.50;;;8.20;99.90;;;;;;4810534;29;20228;-85
2023/11/05 01:56:21;;;;;;;2.10;0.50;;;8.20;99.90;;;;;;4826524;29;20545;-84
2023/11/05 01:58:49;;;;;;;2.55;0.50;;;8.20;99.90;;;;;;4826430;29;20217;-86
2023/11/05 02:01:18;;;;;;;1.13;0.50;;;8.20;99.90;;;;;;4826560;29;20752;-85
2023/11/05 02:03:44;;;;;;;0.70;0.57;;;8.20;99.90;;;;;;4810274;29;20649;-85
2023/11/05 02:06:12;;;;;;;1.48;0.50;;;8.20;99.90;;;;;;4826550;29;20189;-85
2023/11/05 02:08:39;;;;;;;1.75;0.50;;;8.20;99.90;;;;;;4810232;29;20198;-83
2023/11/05 02:11:06;;;;;;;2.22;0.40;;;8.30;99.90;;;;;;4809422;29;20322;-84
2023/11/05 02:13:52;;;;;;;1.52;0.55;;;8.30;99.90;;;;;;4809818;29;20197;-84
2023/11/05 02:16:20;;;;;;;1.58;0.57;;;8.40;99.90;;;;;;4810011;29;20229;-85
2023/11/05 02:18:47;;;;;;;3.25;0.65;;;8.40;99.90;;;;;;4810309;29;20193;-87
2023/11/05 02:21:45;;;;;;;2.45;0.60;;;8.50;99.90;;;;;;4809615;29;20561;-82
2023/11/05 02:24:11;;;;;;;1.55;0.50;;;8.50;99.90;;;;;;4790259;29;20220;-86
2023/11/05 02:26:37;;;;;;;1.05;0.43;;;8.60;99.90;;;;;;4809827;29;20693;-88
2023/11/05 02:29:04;;;;;;;0.70;0.45;;;8.60;99.90;;;;;;4826138;29;20255;-83
2023/11/05 02:31:29;;;;;;;2.05;0.57;;;8.60;99.90;;;;;;4809688;29;20221;-83
2023/11/05 02:33:55;;;;;;;8.57;0.68;;;8.60;99.90;;;;;;4809585;29;20232;-83
2023/11/05 02:36:21;;;;;;;2.30;0.55;;;8.60;99.90;;;;;;4809367;29;20597;-85
2023/11/05 02:38:47;;;;;;;1.15;0.50;;;8.70;99.90;;;;;;4809012;29;20736;-84
2023/11/05 02:41:13;;;;;;;2.10;0.57;;;8.70;99.90;;;;;;4825760;29;20249;-84
2023/11/05 02:43:39;;;;;;;1.73;0.57;;;8.60;99.90;;;;;;4809120;29;20194;-85
2023/11/05 02:46:06;;;;;;;3.30;0.77;;;8.70;99.90;;;;;;4825770;29;20201;-83
2023/11/05 02:48:32;;;;;;;3.50;0.60;;;8.70;99.90;;;;;;4825866;29;20196;-85
2023/11/05 02:51:02;;;;;;;2.92;0.90;;;8.70;99.90;;;;;;4809556;29;20190;-85
2023/11/05 02:53:27;;;;;;;1.25;0.50;;;8.70;99.90;;;;;;4809010;29;20204;-84
2023/11/05 02:55:53;;;;;;;1.35;0.55;;;8.70;99.90;;;;;;4809373;29;20538;-85
2023/11/05 02:58:19;;;;;;;1.80;0.70;;;8.70;99.90;;;;;;4832758;29;20250;-84
2023/11/05 03:00:45;;;;;;;2.60;0.70;;;8.70;99.90;;;;;;4808975;29;20277;-84
2023/11/05 03:03:12;;;;;;;2.22;0.70;;;8.80;99.90;;;;;;4808909;29;20327;-83
2023/11/05 03:05:40;;;;;;;1.10;0.50;;;8.80;99.90;;;;;;4825646;29;20318;-83
2023/11/05 03:08:06;;;;;;;1.70;0.70;;;8.80;99.90;;;;;;4825245;29;20193;-83
2023/11/05 03:10:32;;;;;;;2.80;0.80;;;8.80;99.90;;;;;;4825485;29;20198;-83
2023/11/05 03:12:58;;;;;;;2.33;0.60;;;8.80;99.90;;;;;;4808987;29;20196;-84
2023/11/05 03:15:23;;;;;;;3.38;0.60;;;8.70;99.90;;;;;;4808506;29;20194;-83
2023/11/05 03:17:50;;;;;;;4.10;0.65;;;8.80;99.90;;;;;;5222834;24;20200;-87
2023/11/05 03:20:16;;;;;;;4.05;0.70;;;8.80;99.90;;;;;;4827727;29;20229;-90
2023/11/05 03:22:41;;;;;;;1.98;0.68;;;8.80;99.90;;;;;;4810156;29;20193;-87
2023/11/05 03:25:10;;;;;;;1.30;0.60;;;8.80;99.90;;;;;;4809870;29;20201;-88
2023/11/05 03:27:36;;;;;;;3.35;0.63;;;8.80;99.90;;;;;;4809845;29;20194;-88
2023/11/05 03:30:03;;;;;;;2.05;0.57;;;8.80;99.90;;;;;;4809809;29;20223;-88
2023/11/05 03:32:29;;;;;;;1.05;0.50;;;8.80;99.90;;;;;;4809922;29;20233;-86
2023/11/05 03:34:55;;;;;;;0.80;0.52;;;8.90;99.90;;;;;;4811137;29;20200;-87
2023/11/05 03:37:20;;;;;;;2.95;0.65;;;8.80;99.90;;;;;;4829881;29;20201;-88
2023/11/05 03:39:48;;;;;;;1.80;0.60;;;8.80;99.90;;;;;;4813596;29;20551;-92
2023/11/05 03:42:15;;;;;;;2.40;0.80;;;8.90;99.90;;;;;;4813488;29;20697;-93
2023/11/05 03:44:40;;;;;;;1.40;0.50;;;8.90;99.90;;;;;;4813299;29;20286;-90
2023/11/05 03:47:06;;;;;;;4.25;0.80;;;8.90;99.90;;;;;;4813425;29;20288;-92
2023/11/05 03:49:35;;;;;;;5.35;0.68;;;9.00;99.90;;;;;;4815790;29;20221;-92
2023/11/05 03:52:03;;;;;;;4.13;0.95;;;9.00;99.90;;;;;;4813396;29;20277;-91
2023/11/05 03:54:29;;;;;;;4.07;0.70;;;9.00;99.90;;;;;;4813246;29;20194;-89
2023/11/05 03:56:56;;;;;;;0.95;0.52;;;9.00;99.90;;;;;;4813013;29;20193;-89
2023/11/05 03:59:23;;;;;;;3.53;0.70;;;9.10;99.90;;;;;;4813343;29;20212;-87
2023/11/05 04:01:50;;;;;;;1.42;0.50;;;9.10;99.90;;;;;;4813232;29;20243;-85
2023/11/05 04:04:16;;;;;;;4.18;0.80;;;9.00;99.90;;;;;;4828895;29;20189;-87
2023/11/05 04:06:41;;;;;;;7.18;0.85;;;9.00;99.90;;;;;;4813011;29;20204;-89
2023/11/05 04:09:07;;;;;;;3.55;0.85;;;9.10;99.90;;;;;;4813034;29;20208;-89
2023/11/05 04:11:39;;;;;;;3.70;1.08;;;9.10;99.90;;;;;;4813006;29;20208;-87
2023/11/05 04:14:05;;;;;;;6.07;0.82;;;9.00;99.90;;;;;;4812902;29;20582;-87
2023/11/05 04:16:31;;;;;;;5.22;0.63;;;9.00;99.90;;;;;;4812859;29;20189;-88
2023/11/05 04:18:58;;;;;;;2.17;0.68;;;9.00;99.90;;;;;;4815042;29;20245;-88
2023/11/05 04:21:30;;;;;;;2.40;0.65;;;9.10;99.90;;;;;;4812578;29;20243;-89
2023/11/05 04:23:56;;;;;;;4.43;0.60;;;9.10;99.90;;;;;;4812772;29;20198;-89
2023/11/05 04:26:22;;;;;;;4.20;0.75;;;9.10;99.90;;;;;;4812624;29;20194;-90
2023/11/05 04:28:47;;;;;;;2.50;0.70;;;9.10;99.90;;;;;;4812591;29;20293;-89
2023/11/05 04:31:15;;;;;;;5.60;0.80;;;9.10;99.90;;;;;;4812698;29;20625;-92
2023/11/05 04:33:41;;;;;;;3.55;1.00;;;9.10;99.90;;;;;;4812650;29;20225;-90
2023/11/05 04:36:07;;;;;;;5.50;0.75;;;9.10;99.90;;;;;;4812725;29;20205;-92
2023/11/05 04:38:33;;;;;;;3.50;0.85;;;9.10;99.90;;;;;;4812615;29;20638;-90
2023/11/05 04:40:59;;;;;;;4.32;0.73;;;9.10;99.90;;;;;;4828657;29;20218;-89
2023/11/05 04:43:25;;;;;;;6.75;0.98;;;9.10;99.90;;;;;;4812411;29;20194;-89
2023/11/05 04:45:50;;;;;;;3.08;0.95;;;9.10;99.90;;;;;;4812073;29;20281;-90
2023/11/05 04:48:16;;;;;;;3.80;0.73;;;9.10;99.90;;;;;;4815065;29;20660;-88
2023/11/05 04:50:48;;;;;;;3.10;0.85;;;9.10;99.90;;;;;;4812819;29;20200;-88
2023/11/05 04:53:13;;;;;;;2.70;0.82;;;9.00;99.90;;;;;;4812281;29;20217;-88
2023/11/05 04:55:39;;;;;;;3.42;0.88;;;9.00;99.90;;;;;;4812284;29;20629;-89
2023/11/05 04:58:05;;;;;;;2.67;0.65;;;9.00;99.90;;;;;;4811920;29;20198;-85
2023/11/05 05:00:31;;;;;;;4.10;0.82;;;9.00;99.90;;;;;;4812368;29;20228;-88
2023/11/05 05:02:57;;;;;;;1.65;0.73;;;9.00;99.90;;;;;;4812259;29;20226;-89
2023/11/05 05:05:23;;;;;;;2.33;0.70;;;9.00;99.90;;;;;;4811850;29;20285;-87
2023/11/05 05:07:48;;;;;;;4.00;0.80;;;9.00;99.90;;;;;;4828076;29;20273;-88
2023/11/05 05:10:20;;;;;;;4.32;0.70;;;8.90;99.90;;;;;;4812041;29;20640;-87
2023/11/05 05:12:46;;;;;;;5.22;0.95;;;9.00;99.90;;;;;;4812247;29;20335;-90
2023/11/05 05:15:12;;;;;;;3.38;0.82;;;8.90;99.90;;;;;;4828330;29;20196;-92
2023/11/05 05:17:37;;;;;;;3.55;0.80;;;8.90;99.90;;;;;;4811920;29;20252;-89
2023/11/05 05:20:04;;;;;;;2.03;0.77;;;8.90;99.90;;;;;;4814522;29;20237;-91
2023/11/05 05:22:29;;;;;;;8.30;1.30;;;9.00;99.90;;;;;;4812293;29;20618;-90
2023/11/05 05:24:55;;;;;;;5.03;1.10;;;9.00;99.90;;;;;;4811785;29;20227;-88
2023/11/05 05:27:21;;;;;;;5.05;1.17;;;8.90;99.90;;;;;;4811660;29;20236;-89
2023/11/05 05:29:47;;;;;;;2.70;0.90;;;8.90;99.90;;;;;;4811670;29;20194;-89
2023/11/05 05:32:14;;;;;;;3.60;1.00;;;8.90;99.90;;;;;;4811563;29;20186;-91
2023/11/05 05:34:40;;;;;;;4.20;0.90;;;8.90;99.90;;;;;;4811830;29;20633;-89
2023/11/05 05:37:07;;;;;;;4.60;0.90;;;8.90;99.90;;;;;;4804229;29;20301;-88
2023/11/05 05:39:33;;;;;;;3.92;1.10;;;8.90;99.90;;;;;;4803973;29;20315;-88
2023/11/05 05:42:03;;;;;;;1.95;0.70;;;8.90;99.90;;;;;;4811539;29;20332;-89
2023/11/05 05:44:29;;;;;;;3.08;1.08;;;8.90;99.90;;;;;;4811299;29;20637;-88
2023/11/05 05:46:55;;;;;;;4.57;0.90;;;8.90;99.90;;;;;;4811482;29;20626;-88
2023/11/05 05:49:21;;;;;;;4.18;1.08;;;8.90;99.90;;;;;;4814296;29;20190;-86
2023/11/05 05:51:46;;;;;;;5.22;1.00;;;8.80;99.90;;;;;;4811653;29;20288;-88
2023/11/05 05:54:12;;;;;;;2.83;0.80;;;8.90;99.90;;;;;;4811191;29;20618;-90
2023/11/05 05:56:38;;;;;;;3.72;1.00;;;8.90;99.90;;;;;;4811065;29;20198;-91
2023/11/05 05:59:03;;;;;;;6.15;1.23;;;8.90;99.90;;;;;;4810831;29;20196;-88
2023/11/05 06:01:29;;;;;;;2.22;0.70;;;8.90;99.90;;;;;;4811189;29;20221;-88
2023/11/05 06:03:55;;;;;;;4.32;0.95;;;8.90;99.90;;;;;;4810732;29;20514;-88
2023/11/05 06:06:20;;;;;;;4.57;1.00;;;8.90;99.90;;;;;;4827367;29;20239;-87
2023/11/05 06:08:46;;;;;;;5.22;1.00;;;8.90;99.90;;;;;;4810900;29;20221;-87
2023/11/05 06:11:12;;;;;;;7.85;1.40;;;8.90;99.90;;;;;;4810827;29;20194;-87
2023/11/05 06:13:38;;;;;;;3.00;1.00;;;8.90;99.90;;;;;;4810895;29;20202;-86
2023/11/05 06:16:04;;;;;;;4.40;0.88;;;8.90;99.90;;;;;;4811001;29;20198;-88
2023/11/05 06:18:30;;;;;;;3.05;1.08;;;8.90;99.90;;;;;;4810217;29;20226;-86
2023/11/05 06:20:57;;;;;;;8.77;1.73;;;8.90;99.90;;;;;;4804415;29;20226;-84
2023/11/05 06:23:23;;;;;;;6.10;1.27;;;8.90;99.90;;;;;;4807379;29;20225;-86
2023/11/05 06:25:49;;;;;;;4.10;1.10;;;8.90;99.90;;;;;;4807683;29;20201;-85
2023/11/05 06:28:15;;;;;;;6.60;0.88;;;8.90;99.90;;;;;;4807425;29;20193;-86
2023/11/05 06:30:41;;;;;;;5.75;1.13;;;8.90;99.90;;;;;;4806368;29;20188;-87
2023/11/05 06:33:06;;;;;;;3.95;1.15;;;8.90;99.90;;;;;;4805397;29;20282;-85
2023/11/05 06:35:32;;;;;;;6.10;0.90;;;8.90;99.90;;;;;;4808450;29;20186;-88
2023/11/05 06:37:57;;;;;;;4.13;1.02;;;8.90;99.90;;;;;;4806371;29;20198;-87
2023/11/05 06:40:23;;;;;;;5.53;1.15;;;8.90;99.90;;;;;;4807354;29;20217;-84
2023/11/05 06:42:50;;;;;;;3.65;0.98;;;8.90;99.90;;;;;;4807484;29;20194;-86
2023/11/05 06:45:16;;;;;;;3.08;1.20;;;8.90;99.90;;;;;;4807186;29;20228;-88
2023/11/05 06:47:42;;;;;;;4.03;1.23;;;8.90;99.90;;;;;;4806898;29;20194;-86
2023/11/05 06:50:08;;;;;;;2.58;0.70;;;8.90;99.90;;;;;;4809549;29;20251;-85
2023/11/05 06:52:34;;;;;;;4.82;1.02;;;8.90;99.90;;;;;;4807048;29;20742;-84
2023/11/05 06:55:00;;;;;;;2.72;1.10;;;8.80;99.90;;;;;;4807253;29;20280;-87
2023/11/05 06:57:25;;;;;;;5.25;0.80;;;8.90;99.90;;;;;;4806937;29;20194;-87
2023/11/05 06:59:51;;;;;;;2.10;0.77;;;8.90;99.90;;;;;;4806905;29;20277;-85
2023/11/05 07:02:18;;;;;;;6.43;0.88;;;8.90;99.90;;;;;;4806795;29;20210;-86
2023/11/05 07:04:43;;;;;;;2.78;0.80;;;8.90;99.90;;;;;;4806588;29;20194;-89
2023/11/05 07:07:11;;;;;;;1.55;0.73;;;8.90;99.90;;;;;;4806049;29;20511;-88
2023/11/05 07:09:37;;;;;;;4.07;0.80;;;8.90;99.90;;;;;;4807311;29;20588;-88
2023/11/05 07:12:08;;;;;;;3.35;0.90;;;8.90;99.90;;;;;;4800750;29;20284;-89
2023/11/05 07:14:34;;;;;;;4.05;0.80;;;8.90;99.90;;;;;;4799801;29;20259;-87
2023/11/05 07:16:59;;;;;;;4.75;0.70;;;8.90;99.90;;;;;;4806564;29;20577;-87
2023/11/05 07:19:25;;;;;;;4.70;0.88;;;8.90;99.90;;;;;;4822022;29;20669;-88
2023/11/05 07:21:52;;;;;;;4.32;1.20;;;8.90;99.90;;;;;;4826148;29;20218;-87
2023/11/05 07:24:17;;;;;;;2.47;0.80;;;9.00;99.90;;;;;;4809680;29;20232;-88
2023/11/05 07:26:43;;;;;;;2.90;0.77;;;9.00;99.90;;;;;;4809491;29;20228;-88
2023/11/05 07:29:11;;;;;;;3.80;0.90;;;9.00;99.90;;;;;;4825944;29;20189;-88
2023/11/05 07:31:39;;;;;;;4.50;0.90;;;9.00;99.90;;;;;;4809645;29;20645;-88
2023/11/05 07:34:05;;;;;;;3.90;0.77;;;9.00;99.90;;;;;;4809643;29;20198;-88
2023/11/05 07:36:32;;;;;;;2.65;0.68;;;9.10;99.90;;;;;;4809725;29;20251;-87
2023/11/05 07:38:57;;;;;;;1.83;0.70;;;9.10;99.90;;;;;;4826077;29;20242;-87
2023/11/05 07:41:23;;;;;;;4.07;0.85;;;9.10;99.90;;;;;;4809805;29;20594;-88
2023/11/05 07:43:49;;;;;;;2.60;0.70;;;9.20;99.90;;;;;;4809617;29;20190;-87
2023/11/05 07:46:14;;;;;;;2.80;0.63;;;9.30;99.90;;;;;;4809958;29;20535;-89
2023/11/05 07:48:40;;;;;;;3.75;0.77;;;9.30;99.90;;;;;;4812796;29;20194;-88
2023/11/05 07:51:06;;;;;;;2.70;0.70;;;9.40;99.90;;;;;;4826065;29;20193;-88
2023/11/05 07:53:38;;;;;;;2.40;0.80;;;9.40;99.90;;;;;;4809682;29;20249;-89
2023/11/05 07:56:04;;;;;;;1.75;0.93;;;9.40;99.90;;;;;;4809764;29;20190;-89
2023/11/05 07:58:30;;;;;;;2.25;0.50;;;9.40;99.90;;;;;;4809374;29;20196;-87
2023/11/05 08:00:56;;;;;;;3.05;0.70;;;9.50;99.90;;;;;;4809546;29;20221;-89
2023/11/05 08:03:28;;;;;;;3.15;0.65;;;9.50;99.90;;;;;;4809342;29;20190;-87
2023/11/05 08:05:54;;;;;;;4.38;1.17;;;9.60;99.90;;;;;;4809490;29;20221;-88
2023/11/05 08:08:20;;;;;;;5.28;0.85;;;9.60;99.90;;;;;;4809370;29;20618;-89
2023/11/05 08:10:45;;;;;;;2.95;0.90;;;9.70;99.90;;;;;;4825878;29;20697;-87
2023/11/05 08:13:14;;;;;;;1.55;0.52;;;9.70;99.90;;;;;;4809523;29;20197;-88
2023/11/05 08:15:41;;;;;;;4.45;0.70;;;9.70;99.90;;;;;;4809363;29;20593;-88
2023/11/05 08:18:07;;;;;;;3.20;0.70;;;9.70;99.90;;;;;;4812325;29;20254;-87
2023/11/05 08:20:33;;;;;;;3.65;1.10;;;9.70;99.90;;;;;;4810092;29;20305;-89
2023/11/05 08:22:59;;;;;;;1.75;0.70;;;9.80;99.90;;;;;;4829102;29;20226;-87
2023/11/05 08:25:27;;;;;;;3.17;0.80;;;9.80;99.90;;;;;;4828296;29;20634;-86
2023/11/05 08:27:54;;;;;;;2.55;0.75;;;9.80;99.90;;;;;;4812375;29;20660;-89
2023/11/05 08:30:23;;;;;;;5.22;0.85;;;9.80;99.90;;;;;;4812888;29;20311;-88
2023/11/05 08:32:54;;;;;;;1.70;0.70;;;9.90;99.90;;;;;;4812863;29;20626;-88
2023/11/05 08:35:20;;;;;;;2.10;0.82;;;9.90;99.90;;;;;;4812369;29;20255;-89
2023/11/05 08:37:47;;;;;;;2.80;0.80;;;9.90;99.90;;;;;;4812398;29;20186;-88
2023/11/05 08:40:15;;;;;;;3.58;0.70;;;9.90;99.90;;;;;;4812250;29;20222;-87
2023/11/05 08:42:42;;;;;;;2.10;0.70;;;10.00;99.90;;;;;;4828451;29;20190;-87
2023/11/05 08:45:08;;;;;;;2.83;0.80;;;10.00;99.90;;;;;;4812251;29;20636;-88
2023/11/05 08:47:34;;;;;;;1.63;0.70;;;10.10;99.90;;;;;;4812409;29;20194;-89
2023/11/05 08:50:03;;;;;;;1.40;0.50;;;10.10;99.90;;;;;;4815209;29;20634;-87
2023/11/05 08:52:28;;;;;;;2.30;0.82;;;10.10;99.90;;;;;;4812307;29;20194;-87
2023/11/05 08:54:57;;;;;;;2.13;0.80;;;10.10;99.90;;;;;;4812543;29;20254;-88
2023/11/05 08:57:22;;;;;;;2.38;0.60;;;10.20;99.90;;;;;;4811982;29;20217;-89
2023/11/05 08:59:48;;;;;;;2.67;0.88;;;10.30;99.90;;;;;;4812323;29;20245;-89
2023/11/05 09:02:14;;;;;;;3.47;0.70;;;10.40;99.90;;;;;;4812228;29;20194;-90
2023/11/05 09:04:40;;;;;;;2.70;0.77;;;10.50;99.90;;;;;;4811662;29;20218;-88
2023/11/05 09:07:06;;;;;;;4.10;1.02;;;10.60;99.90;;;;;;4812012;29;20642;-88
2023/11/05 09:09:32;;;;;;;3.13;0.70;;;10.60;99.90;;;;;;4811938;29;20197;-89
2023/11/05 09:11:57;;;;;;;1.15;0.52;;;10.70;99.90;;;;;;4828356;29;20190;-88
2023/11/05 09:14:36;;;;;;;3.03;0.60;;;10.80;99.90;;;;;;4811901;29;20544;-89
2023/11/05 09:17:06;;;;;;;3.97;0.80;;;10.80;99.90;;;;;;4811780;29;20651;-87
2023/11/05 09:19:32;;;;;;;2.25;0.93;;;10.90;99.90;;;;;;4814689;29;20297;-88
2023/11/05 09:21:57;;;;;;;2.95;0.60;;;10.90;99.90;;;;;;4811842;29;20218;-89
2023/11/05 09:24:23;;;;;;;3.92;0.75;;;11.00;99.90;;;;;;4811531;29;20653;-86
2023/11/05 09:26:49;;;;;;;3.33;0.70;;;11.10;99.90;;;;;;4811601;29;20201;-83
2023/11/05 09:29:15;;;;;;;1.92;0.57;;;11.10;99.90;;;;;;4811738;29;20198;-88
2023/11/05 09:31:42;;;;;;;2.80;0.60;;;11.10;99.90;;;;;;4810853;29;20193;-89
2023/11/05 09:34:25;;;;;;;3.03;0.63;;;11.10;99.90;;;;;;4811073;29;20224;-91
2023/11/05 09:36:50;;;;;;;3.08;0.40;;;11.10;99.90;;;;;;4811458;29;20189;-91
2023/11/05 09:39:16;;;;;;;1.35;0.50;;;11.10;99.90;;;;;;4811488;29;20194;-88
2023/11/05 09:41:42;;;;;;;2.60;0.75;;;11.20;99.90;;;;;;4811498;29;20218;-89
2023/11/05 09:44:11;;;;;;;1.50;0.60;;;11.20;99.90;;;;;;4811218;29;20357;-89
2023/11/05 09:46:38;;;;;;;2.60;0.68;;;11.10;99.90;;;;;;4811551;29;20209;-88
2023/11/05 09:49:04;;;;;;;0.82;0.40;;;11.10;99.90;;;;;;4814255;29;20198;-88
2023/11/05 09:51:30;;;;;;;1.38;0.40;;;11.00;99.90;;;;;;4811164;29;20239;-88
2023/11/05 09:53:57;;;;;;;1.23;0.50;;;11.00;99.90;;;;;;4811043;29;20254;-88
2023/11/05 09:56:25;;;;;;;1.55;0.50;;;10.90;99.90;;;;;;4811287;29;20201;-85
2023/11/05 09:58:50;;;;;;;3.60;0.45;;;10.80;99.90;;;;;;4811005;29;20194;-85
2023/11/05 10:01:16;;;;;;;1.65;1.00;;;10.80;99.90;;;;;;4810847;29;20233;-86
2023/11/05 10:03:43;;;;;;;1.95;0.57;;;10.80;99.90;;;;;;4827274;29;20182;-88
2023/11/05 10:06:16;;;;;;;1.52;0.65;;;10.80;99.90;;;;;;4810671;29;20198;-89
2023/11/05 10:08:42;;;;;;;1.48;0.57;;;10.80;99.90;;;;;;4810958;29;20267;-88
2023/11/05 10:11:08;;;;;;;3.13;0.47;;;10.80;99.90;;;;;;4811049;29;20297;-89
2023/11/05 10:13:35;;;;;;;1.73;0.50;;;10.90;99.90;;;;;;4811054;29;20196;-88
2023/11/05 10:16:01;;;;;;;1.60;0.40;;;11.10;99.90;;;;;;4810904;29;20571;-91
2023/11/05 10:18:27;;;;;;;4.22;0.80;;;11.20;99.90;;;;;;4810787;29;20290;-86
2023/11/05 10:20:58;;;;;;;2.95;0.50;;;11.30;99.90;;;;;;4807472;29;20218;-86
2023/11/05 10:23:26;;;;;;;1.95;0.60;;;11.40;99.90;;;;;;4807699;29;20201;-89
2023/11/05 10:25:53;;;;;;;2.42;0.70;;;11.40;99.90;;;;;;4809005;29;20190;-88
2023/11/05 10:28:20;;;;;;;1.08;0.50;;;11.50;99.90;;;;;;4808737;29;20221;-88
2023/11/05 10:30:51;;;;;;;2.75;0.60;;;11.40;99.90;;;;;;4807505;29;20273;-87
2023/11/05 10:33:19;;;;;;;4.40;0.75;;;11.50;99.90;;;;;;4808382;29;20622;-88
2023/11/05 10:35:45;;;;;;;1.55;0.50;;;11.40;99.90;;;;;;4807361;29;20186;-89
2023/11/05 10:38:18;;;;;;;0.63;0.40;;;11.40;99.90;;;;;;4810457;29;20247;-86
2023/11/05 10:40:48;;;;;;;2.25;0.60;;;11.30;99.90;;;;;;4807262;29;20229;-86
2023/11/05 10:43:14;;;;;;;1.25;0.50;;;11.30;99.90;;;;;;4806559;29;20623;-87
2023/11/05 10:45:40;;;;;;;1.35;0.50;;;11.40;99.90;;;;;;4806594;29;20190;-84
2023/11/05 10:48:09;;;;;;;1.10;0.40;;;11.40;99.90;;;;;;4809906;29;20197;-87
2023/11/05 10:50:37;;;;;;;3.35;0.60;;;11.40;99.90;;;;;;4821652;29;20183;-85
2023/11/05 10:53:06;;;;;;;1.75;0.70;;;11.40;99.90;;;;;;4812343;29;20193;-84
2023/11/05 10:55:41;;;;;;;2.00;0.80;;;11.50;99.90;;;;;;4806723;29;20252;-86
2023/11/05 10:58:07;;;;;;;1.35;0.70;;;11.50;99.90;;;;;;4806922;29;20638;-87
2023/11/05 11:00:33;;;;;;;1.05;0.60;;;11.50;99.90;;;;;;4799498;29;20226;-87
2023/11/05 11:03:01;;;;;;;1.40;0.73;;;11.60;99.90;;;;;;4806950;29;20220;-86
2023/11/05 11:05:46;;;;;;;0.70;0.52;;;11.60;99.90;;;;;;4807712;29;20213;-84
2023/11/05 11:08:22;;;;;;;3.30;0.77;;;11.80;99.90;;;;;;4807842;29;20642;-86
2023/11/05 11:10:49;;;;;;;1.13;0.57;;;11.80;99.90;;;;;;4807907;29;20187;-88
2023/11/05 11:13:28;;;;;;;2.45;0.85;;;11.90;99.90;;;;;;4806741;29;20196;-86
2023/11/05 11:15:55;;;;;;;2.28;1.00;;;11.90;99.90;;;;;;4806968;29;20190;-87
2023/11/05 11:18:27;;;;;;;1.88;0.80;;;11.90;99.90;;;;;;4809234;29;20249;-89
2023/11/05 11:20:54;;;;;;;1.73;0.60;;;11.90;99.90;;;;;;4805886;29;20233;-89
2023/11/05 11:23:27;;;;;;;3.35;0.73;;;11.90;99.90;;;;;;4806996;29;20271;-87
2023/11/05 11:26:21;;;;;;;1.42;0.70;;;11.80;99.90;;;;;;4806298;29;20198;-86
2023/11/05 11:28:54;;;;;;;2.05;0.82;;;11.80;99.90;;;;;;4806342;29;20197;-89
2023/11/05 11:31:21;;;;;;;1.77;0.70;;;11.80;99.90;;;;;;4806526;29;20852;-84
2023/11/05 11:33:49;;;;;;;2.05;0.70;;;11.80;99.90;;;;;;4811789;29;20198;-87
2023/11/05 11:36:15;;;;;;;1.08;0.63;;;11.80;99.90;;;;;;4806168;29;20221;-87
2023/11/05 11:38:43;;;;;;;3.00;0.60;;;11.80;99.90;;;;;;4806383;29;20190;-85
2023/11/05 11:41:09;;;;;;;1.02;0.50;;;11.90;99.90;;;;;;4803720;29;20213;-87
2023/11/05 11:43:36;;;;;;;3.35;0.77;;;12.00;99.90;;;;;;4816438;29;20187;-84
2023/11/05 11:46:03;;;;;;;3.67;0.80;;;12.00;99.90;;;;;;4806548;29;20592;-85
2023/11/05 11:48:28;;;;;;;1.08;0.50;;;11.90;99.90;;;;;;4805342;29;20198;-86
2023/11/05 11:50:55;;;;;;;1.50;0.40;;;11.90;99.90;;;;;;4806276;29;20255;-89
2023/11/05 11:53:32;;;;;;;1.73;0.60;;;11.90;99.90;;;;;;4806329;29;20195;-87
2023/11/05 11:55:59;;;;;;;5.63;0.82;;;12.00;99.90;;;;;;4806752;29;20190;-85
2023/11/05 11:58:27;;;;;;;0.93;0.50;;;12.00;99.90;;;;;;4809881;29;20266;-87
2023/11/05 12:00:54;;;;;;;1.23;0.55;;;12.00;99.90;;;;;;4809794;29;20226;-89
2023/11/05 12:03:21;;;;;;;6.50;0.77;;;12.00;99.90;;;;;;4809948;29;20201;-87
2023/11/05 12:05:54;;;;;;;0.90;0.50;;;12.00;99.90;;;;;;4809707;29;20669;-84
2023/11/05 12:08:40;;;;;;;2.20;0.60;;;12.00;99.90;;;;;;4808960;29;20195;-86
2023/11/05 12:11:11;;;;;;;2.42;0.50;;;12.00;99.90;;;;;;4806258;29;20182;-90
2023/11/05 12:13:42;;;;;;;1.45;0.63;;;12.00;99.90;;;;;;4802867;29;20602;-88
2023/11/05 12:16:13;;;;;;;4.68;0.60;;;12.00;99.90;;;;;;4809749;29;20193;-87
2023/11/05 12:18:41;;;;;;;1.48;0.65;;;12.10;99.90;;;;;;4808925;29;20280;-90
2023/11/05 12:21:12;;;;;;;2.28;0.50;;;12.10;99.90;;;;;;4810430;29;20220;-86
2023/11/05 12:23:39;;;;;;;1.90;0.77;;;12.20;99.90;;;;;;4809512;29;20244;-86
2023/11/05 12:26:18;;;;;;;2.90;0.80;;;12.30;99.90;;;;;;4809331;29;20198;-86
2023/11/05 12:28:45;;;;;;;2.83;0.47;;;12.40;99.90;;;;;;4802477;29;20185;-85
2023/11/05 12:31:15;;;;;;;2.80;0.50;;;12.40;99.90;;;;;;4807679;29;20297;-86
2023/11/05 12:33:41;;;;;;;1.25;0.50;;;12.40;99.90;;;;;;4809169;29;20627;-87
2023/11/05 12:36:08;;;;;;;1.73;0.50;;;12.40;99.90;;;;;;4809834;29;20203;-85
2023/11/05 12:38:34;;;;;;;1.45;0.43;;;12.40;99.90;;;;;;4801941;29;20201;-88
2023/11/05 12:40:59;;;;;;;0.75;0.38;;;12.30;99.90;;;;;;4809326;29;20665;-86
2023/11/05 12:43:25;;;;;;;0.55;0.30;;;12.30;99.90;;;;;;4811546;29;20197;-87
2023/11/05 12:45:55;;;;;;;1.15;0.30;;;12.20;99.90;;;;;;4813805;29;20623;-84
2023/11/05 12:48:26;;;;;;;2.38;0.40;;;12.10;99.90;;;;;;4810202;29;20562;-88
2023/11/05 12:51:04;;;;;;;0.82;0.50;;;12.10;99.90;;;;;;4802907;29;20195;-86
2023/11/05 12:53:31;;;;;;;0.73;0.20;;;12.10;99.90;;;;;;4804955;29;20194;-88